createdAt,value
2023-02-13T00:00:23.669Z,8.23
2023-02-13T00:02:52.756Z,8.46
2023-02-13T00:05:20.551Z,8.57
2023-02-13T00:07:48.222Z,8.73
2023-02-13T00:10:16.044Z,8.79
2023-02-13T00:12:43.709Z,8.86
2023-02-13T00:15:11.764Z,8.94
2023-02-13T00:17:39.499Z,8.99
2023-02-13T00:20:11.439Z,8.66
2023-02-13T00:22:39.417Z,8.47
2023-02-13T00:25:07.983Z,8.34
2023-02-13T00:27:35.652Z,8.18
2023-02-13T00:30:03.347Z,8.30
2023-02-13T00:32:31.752Z,8.27
2023-02-13T00:34:59.441Z,8.26
2023-02-13T00:37:28.595Z,8.02
2023-02-13T00:39:56.214Z,8.08
2023-02-13T00:42:26.555Z,7.97
2023-02-13T00:44:54.476Z,8.26
2023-02-13T00:47:22.506Z,8.24
2023-02-13T00:49:50.133Z,8.28
2023-02-13T00:52:17.818Z,8.16
2023-02-13T00:54:47.742Z,8.17
2023-02-13T00:57:15.520Z,8.23
2023-02-13T00:59:43.190Z,8.35
2023-02-13T01:02:10.837Z,8.56
2023-02-13T01:04:38.698Z,8.51
2023-02-13T01:07:06.391Z,8.38
2023-02-13T01:09:34.186Z,8.20
2023-02-13T01:12:03.207Z,7.92
2023-02-13T01:14:30.944Z,7.92
2023-02-13T01:16:58.619Z,7.91
2023-02-13T01:19:26.464Z,8.22
2023-02-13T01:21:54.480Z,8.26
2023-02-13T01:24:22.138Z,8.36
2023-02-13T01:26:49.842Z,8.46
2023-02-13T01:29:18.967Z,8.26
2023-02-13T01:31:46.837Z,7.88
2023-02-13T01:34:14.626Z,7.86
2023-02-13T01:36:42.269Z,7.61
2023-02-13T01:39:13.195Z,7.66
2023-02-13T01:41:41.067Z,7.73
2023-02-13T01:44:42.142Z,7.79
2023-02-13T01:47:12.006Z,7.82
2023-02-13T01:49:40.536Z,8.27
2023-02-13T01:52:09.244Z,8.48
2023-02-13T01:54:37.370Z,8.53
2023-02-13T01:57:06.890Z,8.39
2023-02-13T01:59:36.250Z,8.41
2023-02-13T02:02:04.157Z,8.42
2023-02-13T02:04:35.946Z,8.44
2023-02-13T02:07:05.686Z,8.38
2023-02-13T02:09:36.656Z,8.42
2023-02-13T02:12:08.311Z,8.51
2023-02-13T02:14:36.330Z,8.24
2023-02-13T02:17:04.165Z,8.04
2023-02-13T02:19:38.083Z,8.14
2023-02-13T02:22:33.341Z,8.16
2023-02-13T02:25:15.398Z,8.28
2023-02-13T02:28:12.272Z,8.13
2023-02-13T02:31:21.539Z,8.19
2023-02-13T02:34:00.136Z,8.19
2023-02-13T02:36:36.500Z,8.34
2023-02-13T02:39:15.056Z,8.52
2023-02-13T02:41:58.984Z,8.35
2023-02-13T02:44:34.268Z,8.12
2023-02-13T02:47:29.008Z,8.01
2023-02-13T02:50:13.487Z,7.91
2023-02-13T02:52:47.352Z,7.69
2023-02-13T02:55:22.320Z,7.71
2023-02-13T02:58:11.236Z,7.66
2023-02-13T03:00:59.800Z,7.59
2023-02-13T03:03:45.900Z,7.76
2023-02-13T03:06:17.798Z,7.82
2023-02-13T03:09:05.183Z,8.00
2023-02-13T03:11:50.830Z,8.11
2023-02-13T03:14:21.749Z,8.15
2023-02-13T03:17:07.386Z,8.32
2023-02-13T03:20:02.800Z,7.97
2023-02-13T03:22:40.117Z,7.99
2023-02-13T03:25:13.235Z,7.86
2023-02-13T03:28:05.197Z,7.83
2023-02-13T03:30:42.039Z,7.85
2023-02-13T03:33:20.697Z,7.62
2023-02-13T03:36:08.970Z,7.71
2023-02-13T03:38:43.648Z,7.77
2023-02-13T03:41:21.486Z,8.10
2023-02-13T03:43:57.508Z,8.19
2023-02-13T03:46:26.386Z,7.94
2023-02-13T03:49:12.323Z,7.99
2023-02-13T03:51:43.774Z,7.79
2023-02-13T03:54:19.544Z,7.61
2023-02-13T03:57:05.905Z,7.62
2023-02-13T03:59:35.563Z,7.75
2023-02-13T04:02:08.320Z,7.91
2023-02-13T04:04:41.687Z,8.14
2023-02-13T04:07:11.979Z,8.24
2023-02-13T04:09:42.677Z,8.05
2023-02-13T04:12:15.616Z,8.12
2023-02-13T04:14:48.805Z,8.05
2023-02-13T04:17:20.659Z,8.13
2023-02-13T04:19:48.777Z,8.14
2023-02-13T04:22:16.552Z,8.12
2023-02-13T04:24:45.766Z,8.08
2023-02-13T04:27:15.082Z,8.19
2023-02-13T04:29:42.945Z,8.11
2023-02-13T04:32:11.121Z,8.12
2023-02-13T04:34:39.245Z,8.24
2023-02-13T04:37:06.998Z,8.13
2023-02-13T04:39:34.732Z,8.35
2023-02-13T04:42:03.836Z,7.96
2023-02-13T04:44:31.548Z,8.03
2023-02-13T04:46:59.243Z,8.04
2023-02-13T04:49:26.981Z,8.24
2023-02-13T04:51:54.679Z,8.46
2023-02-13T04:54:22.309Z,8.22
2023-02-13T04:56:49.934Z,7.92
2023-02-13T04:59:18.995Z,7.72
2023-02-13T05:01:46.868Z,7.72
2023-02-13T05:04:16.320Z,7.99
2023-02-13T05:06:44.225Z,8.13
2023-02-13T05:09:12.116Z,8.25
2023-02-13T05:11:39.791Z,7.98
2023-02-13T05:14:07.547Z,7.96
2023-02-13T05:16:36.599Z,7.89
2023-02-13T05:19:04.381Z,7.87
2023-02-13T05:21:49.789Z,7.94
2023-02-13T05:24:20.137Z,7.81
2023-02-13T05:26:48.262Z,7.90
2023-02-13T05:29:22.551Z,8.20
2023-02-13T05:31:52.915Z,8.32
2023-02-13T05:34:21.127Z,8.33
2023-02-13T05:36:48.857Z,8.02
2023-02-13T05:39:16.738Z,7.99
2023-02-13T05:41:44.833Z,8.00
2023-02-13T05:44:12.722Z,7.86
2023-02-13T05:46:41.759Z,8.12
2023-02-13T05:49:11.710Z,8.15
2023-02-13T05:51:39.489Z,8.14
2023-02-13T05:54:07.192Z,8.25
2023-02-13T05:56:34.901Z,8.17
2023-02-13T05:59:02.644Z,8.36
2023-02-13T06:01:30.352Z,8.43
2023-02-13T06:03:59.393Z,8.50
2023-02-13T06:06:29.525Z,8.30
2023-02-13T06:08:57.194Z,8.25
2023-02-13T06:11:24.832Z,7.88
2023-02-13T06:13:52.566Z,7.93
2023-02-13T06:16:20.488Z,7.99
2023-02-13T06:18:48.236Z,8.03
2023-02-13T06:21:15.899Z,8.20
2023-02-13T06:23:45.160Z,8.08
2023-02-13T06:26:12.858Z,7.90
2023-02-13T06:28:40.603Z,7.94
2023-02-13T06:31:08.418Z,7.88
2023-02-13T06:33:36.225Z,7.95
2023-02-13T06:36:04.526Z,7.89
2023-02-13T06:38:32.298Z,7.79
2023-02-13T06:41:03.053Z,7.74
2023-02-13T06:43:30.761Z,7.75
2023-02-13T06:45:58.492Z,7.59
2023-02-13T06:48:26.398Z,7.54
2023-02-13T06:50:54.242Z,7.54
2023-02-13T06:53:24.947Z,7.72
2023-02-13T06:55:53.997Z,7.79
2023-02-13T06:58:23.877Z,7.93
2023-02-13T07:00:51.833Z,7.99
2023-02-13T07:03:19.644Z,8.22
2023-02-13T07:05:47.493Z,8.19
2023-02-13T07:08:15.173Z,7.91
2023-02-13T07:10:43.156Z,7.78
2023-02-13T07:13:11.321Z,7.76
2023-02-13T07:15:40.580Z,7.73
2023-02-13T07:18:08.267Z,7.75
2023-02-13T07:20:36.270Z,7.67
2023-02-13T07:23:06.195Z,7.62
2023-02-13T07:25:33.917Z,7.77
2023-02-13T07:28:05.307Z,8.03
2023-02-13T07:30:34.122Z,8.13
2023-02-13T07:33:04.143Z,8.28
2023-02-13T07:35:32.457Z,8.06
2023-02-13T07:38:00.545Z,7.69
2023-02-13T07:40:28.416Z,7.89
2023-02-13T07:42:57.028Z,8.06
2023-02-13T07:45:24.770Z,8.19
2023-02-13T07:47:52.853Z,8.39
2023-02-13T07:50:21.970Z,8.58
2023-02-13T07:52:54.668Z,8.64
2023-02-13T07:55:22.458Z,8.56
2023-02-13T07:57:50.579Z,8.31
2023-02-13T08:00:20.074Z,8.26
2023-02-13T08:02:48.095Z,8.55
2023-02-13T08:05:16.118Z,8.31
2023-02-13T08:07:45.151Z,8.24
2023-02-13T08:10:31.582Z,8.54
2023-02-13T08:12:59.460Z,8.89
2023-02-13T08:15:27.404Z,8.95
2023-02-13T08:17:55.052Z,8.87
2023-02-13T08:20:23.980Z,8.76
2023-02-13T08:22:53.082Z,8.75
2023-02-13T08:25:21.052Z,8.87
2023-02-13T08:27:48.797Z,8.74
2023-02-13T08:30:17.029Z,9.15
2023-02-13T08:32:53.806Z,9.19
2023-02-13T08:35:22.715Z,9.23
2023-02-13T08:37:50.516Z,9.57
2023-02-13T08:40:19.963Z,9.74
2023-02-13T08:42:47.672Z,9.91
2023-02-13T08:45:15.419Z,10.07
2023-02-13T08:47:43.142Z,10.23
2023-02-13T08:50:11.608Z,10.41
2023-02-13T08:52:39.266Z,10.22
2023-02-13T08:55:07.472Z,10.39
2023-02-13T08:57:36.550Z,10.39
2023-02-13T09:00:05.978Z,10.55
2023-02-13T09:02:33.691Z,10.67
2023-02-13T09:05:01.492Z,10.71
2023-02-13T09:07:29.234Z,10.66
2023-02-13T09:09:56.972Z,10.77
2023-02-13T09:12:24.676Z,10.94
2023-02-13T09:14:53.746Z,10.88
2023-02-13T09:17:21.383Z,10.95
2023-02-13T09:19:49.087Z,10.88
2023-02-13T09:22:17.327Z,10.80
2023-02-13T09:24:45.046Z,10.79
2023-02-13T09:27:12.786Z,10.69
2023-02-13T09:29:40.486Z,10.91
2023-02-13T09:32:09.665Z,10.93
2023-02-13T09:34:37.453Z,11.00
2023-02-13T09:37:05.155Z,11.23
2023-02-13T09:39:32.864Z,11.35
2023-02-13T09:42:02.233Z,11.11
2023-02-13T09:44:36.017Z,11.25
2023-02-13T09:47:06.891Z,11.35
2023-02-13T09:49:39.948Z,10.99
2023-02-13T09:52:09.751Z,11.13
2023-02-13T09:54:37.484Z,11.31
2023-02-13T09:57:09.520Z,11.48
2023-02-13T09:59:47.109Z,11.38
2023-02-13T10:02:35.773Z,11.52
2023-02-13T10:05:12.383Z,11.65
2023-02-13T10:07:45.333Z,11.67
2023-02-13T10:10:21.239Z,11.56
2023-02-13T10:12:57.908Z,11.72
2023-02-13T10:15:31.588Z,11.98
2023-02-13T10:18:02.715Z,12.20
2023-02-13T10:20:34.016Z,12.26
2023-02-13T10:23:06.895Z,12.26
2023-02-13T10:25:41.639Z,12.21
2023-02-13T10:28:13.895Z,12.45
2023-02-13T10:30:49.389Z,12.38
2023-02-13T10:33:20.209Z,12.31
2023-02-13T10:35:53.493Z,12.48
2023-02-13T10:38:23.573Z,12.82
2023-02-13T10:41:06.984Z,12.87
2023-02-13T10:43:40.929Z,13.05
2023-02-13T10:46:15.842Z,12.85
2023-02-13T10:48:53.736Z,12.84
2023-02-13T10:51:28.906Z,13.00
2023-02-13T10:54:12.943Z,13.02
2023-02-13T10:56:45.174Z,12.83
2023-02-13T10:59:24.887Z,12.85
2023-02-13T11:01:55.735Z,12.98
2023-02-13T11:04:23.899Z,12.96
2023-02-13T11:06:57.028Z,13.08
2023-02-13T11:09:25.263Z,13.20
2023-02-13T11:11:53.959Z,13.25
2023-02-13T11:14:23.298Z,13.35
2023-02-13T11:16:55.243Z,12.98
2023-02-13T11:19:26.636Z,13.11
2023-02-13T11:22:00.427Z,12.94
2023-02-13T11:24:29.405Z,12.98
2023-02-13T11:27:01.209Z,13.15
2023-02-13T11:29:30.551Z,13.02
2023-02-13T11:32:19.589Z,12.97
2023-02-13T11:34:47.826Z,12.97
2023-02-13T11:37:20.156Z,12.75
2023-02-13T11:39:51.197Z,12.80
2023-02-13T11:42:25.175Z,12.86
2023-02-13T11:44:54.746Z,12.59
2023-02-13T11:47:40.688Z,12.46
2023-02-13T11:50:22.415Z,12.79
2023-02-13T11:53:11.792Z,12.69
2023-02-13T11:55:40.518Z,12.54
2023-02-13T11:58:25.153Z,12.63
2023-02-13T12:01:09.957Z,12.67
2023-02-13T12:03:38.881Z,12.56
2023-02-13T12:06:12.902Z,12.58
2023-02-13T12:08:43.818Z,12.97
2023-02-13T12:11:21.927Z,13.28
2023-02-13T12:13:50.299Z,13.18
2023-02-13T12:16:23.676Z,13.59
2023-02-13T12:18:54.203Z,13.79
2023-02-13T12:21:35.167Z,13.73
2023-02-13T12:24:07.695Z,13.36
2023-02-13T12:26:39.784Z,12.42
2023-02-13T12:29:18.424Z,12.44
2023-02-13T12:32:01.416Z,12.58
2023-02-13T12:34:51.206Z,12.30
2023-02-13T12:37:28.593Z,12.03
2023-02-13T12:40:13.264Z,12.07
2023-02-13T12:42:49.236Z,12.38
2023-02-13T12:45:25.287Z,12.60
2023-02-13T12:48:18.826Z,12.45
2023-02-13T12:50:55.487Z,12.28
2023-02-13T12:53:36.688Z,12.24
2023-02-13T12:56:28.920Z,12.23
2023-02-13T12:59:10.208Z,11.93
2023-02-13T13:01:59.051Z,12.11
2023-02-13T13:04:37.086Z,12.17
2023-02-13T13:07:44.872Z,12.23
2023-02-13T13:10:22.301Z,12.23
2023-02-13T13:12:56.897Z,12.47
2023-02-13T13:15:33.996Z,12.56
2023-02-13T13:18:10.651Z,12.17
2023-02-13T13:20:53.838Z,12.22
2023-02-13T13:23:24.050Z,12.29
2023-02-13T13:26:01.503Z,12.26
2023-02-13T13:28:34.413Z,12.07
2023-02-13T13:31:03.001Z,11.95
2023-02-13T13:33:31.499Z,11.74
2023-02-13T13:36:04.848Z,11.72
2023-02-13T13:38:42.196Z,11.65
2023-02-13T13:41:13.567Z,11.55
2023-02-13T13:43:55.946Z,11.66
2023-02-13T13:46:32.241Z,11.65
2023-02-13T13:49:10.762Z,11.80
2023-02-13T13:51:38.889Z,11.40
2023-02-13T13:54:21.423Z,11.58
2023-02-13T13:57:12.615Z,11.58
2023-02-13T14:00:14.635Z,11.53
2023-02-13T14:02:46.688Z,11.50
2023-02-13T14:05:30.512Z,11.61
2023-02-13T14:07:59.803Z,11.44
2023-02-13T14:11:06.966Z,11.44
2023-02-13T14:13:36.815Z,11.47
2023-02-13T14:16:05.812Z,11.54
2023-02-13T14:18:35.664Z,11.65
2023-02-13T14:21:04.394Z,11.61
2023-02-13T14:23:35.798Z,11.67
2023-02-13T14:26:36.977Z,11.62
2023-02-13T14:29:29.462Z,11.32
2023-02-13T14:32:03.437Z,11.28
2023-02-13T14:34:34.272Z,11.38
2023-02-13T14:37:35.269Z,11.39
2023-02-13T14:40:53.656Z,11.57
2023-02-13T14:43:38.974Z,11.47
2023-02-13T14:46:26.624Z,11.37
2023-02-13T14:48:58.341Z,11.42
2023-02-13T14:51:33.032Z,11.41
2023-02-13T14:54:06.010Z,11.28
2023-02-13T14:56:34.077Z,11.05
2023-02-13T14:59:11.081Z,11.18
2023-02-13T15:01:45.164Z,11.19
2023-02-13T15:04:17.831Z,11.30
2023-02-13T15:06:47.266Z,11.30
2023-02-13T15:09:27.650Z,11.25
2023-02-13T15:11:55.372Z,11.20
2023-02-13T15:14:26.790Z,10.93
2023-02-13T15:16:58.845Z,10.93
2023-02-13T15:19:28.259Z,10.90
2023-02-13T15:21:59.287Z,10.77
2023-02-13T15:24:27.358Z,10.80
2023-02-13T15:27:00.790Z,10.87
2023-02-13T15:29:38.021Z,10.69
2023-02-13T15:32:22.626Z,10.72
2023-02-13T15:34:50.492Z,10.70
2023-02-13T15:37:24.642Z,10.60
2023-02-13T15:39:52.362Z,10.56
2023-02-13T15:42:20.363Z,10.57
2023-02-13T15:44:50.272Z,10.59
2023-02-13T15:47:20.316Z,10.62
2023-02-13T15:49:50.315Z,10.47
2023-02-13T15:52:21.714Z,10.43
2023-02-13T15:54:53.303Z,10.41
2023-02-13T15:57:21.622Z,10.34
2023-02-13T15:59:49.882Z,10.35
2023-02-13T16:02:21.141Z,10.29
2023-02-13T16:04:50.772Z,10.26
2023-02-13T16:07:18.574Z,10.25
2023-02-13T16:09:46.315Z,10.13
2023-02-13T16:12:24.295Z,10.04
2023-02-13T16:14:54.836Z,9.93
2023-02-13T16:17:29.890Z,9.82
2023-02-13T16:20:01.008Z,9.76
2023-02-13T16:22:34.848Z,9.74
2023-02-13T16:25:11.016Z,9.62
2023-02-13T16:27:43.412Z,9.53
2023-02-13T16:30:35.872Z,9.44
2023-02-13T16:33:24.098Z,9.32
2023-02-13T16:35:52.618Z,9.19
2023-02-13T16:38:29.472Z,9.10
2023-02-13T16:40:59.002Z,9.03
2023-02-13T16:43:44.186Z,8.96
2023-02-13T16:46:26.330Z,8.83
2023-02-13T16:49:06.850Z,8.71
2023-02-13T16:51:37.908Z,8.61
2023-02-13T16:54:07.109Z,8.56
2023-02-13T16:56:42.006Z,8.50
2023-02-13T16:59:29.670Z,8.46
2023-02-13T17:02:19.097Z,8.40
2023-02-13T17:04:49.524Z,8.31
2023-02-13T17:07:20.552Z,8.22
2023-02-13T17:09:54.271Z,8.16
2023-02-13T17:12:22.729Z,8.07
2023-02-13T17:14:52.017Z,8.01
2023-02-13T17:17:20.893Z,7.90
2023-02-13T17:19:48.995Z,7.78
2023-02-13T17:22:24.160Z,7.64
2023-02-13T17:24:51.813Z,7.56
2023-02-13T17:27:21.239Z,7.45
2023-02-13T17:29:51.612Z,7.38
2023-02-13T17:32:20.930Z,7.32
2023-02-13T17:34:48.725Z,7.20
2023-02-13T17:37:19.920Z,7.15
2023-02-13T17:39:48.321Z,7.04
2023-02-13T17:42:22.149Z,6.96
2023-02-13T17:44:51.504Z,6.89
2023-02-13T17:47:19.710Z,6.82
2023-02-13T17:49:47.814Z,6.80
2023-02-13T17:52:17.665Z,6.74
2023-02-13T17:54:46.093Z,6.73
2023-02-13T17:57:14.578Z,6.85
2023-02-13T17:59:42.516Z,6.75
2023-02-13T18:02:21.935Z,6.71
2023-02-13T18:04:50.529Z,6.64
2023-02-13T18:07:20.931Z,6.60
2023-02-13T18:09:48.651Z,6.54
2023-02-13T18:12:17.846Z,6.47
2023-02-13T18:14:45.838Z,6.42
2023-02-13T18:17:13.728Z,6.38
2023-02-13T18:19:42.876Z,6.30
2023-02-13T18:22:11.077Z,6.28
2023-02-13T18:24:41.076Z,6.17
2023-02-13T18:27:11.195Z,6.15
2023-02-13T18:29:39.471Z,6.09
2023-02-13T18:32:10.230Z,6.08
2023-02-13T18:34:38.694Z,6.05
2023-02-13T18:37:08.304Z,6.03
2023-02-13T18:39:36.042Z,5.99
2023-02-13T18:42:03.767Z,5.97
2023-02-13T18:44:32.011Z,5.92
2023-02-13T18:47:00.265Z,5.86
2023-02-13T18:49:28.034Z,5.81
2023-02-13T18:51:55.731Z,5.74
2023-02-13T18:54:24.916Z,5.76
2023-02-13T18:56:52.597Z,5.76
2023-02-13T18:59:20.323Z,5.79
2023-02-13T19:01:48.063Z,5.74
2023-02-13T19:04:15.880Z,5.73
2023-02-13T19:06:45.464Z,5.79
2023-02-13T19:09:13.270Z,5.89
2023-02-13T19:11:42.748Z,5.91
2023-02-13T19:14:13.588Z,5.91
2023-02-13T19:16:41.980Z,5.91
2023-02-13T19:19:09.931Z,5.89
2023-02-13T19:21:38.859Z,5.85
2023-02-13T19:24:09.274Z,5.79
2023-02-13T19:26:37.022Z,5.79
2023-02-13T19:29:06.047Z,5.83
2023-02-13T19:31:34.201Z,5.80
2023-02-13T19:34:02.168Z,5.77
2023-02-13T19:36:30.826Z,5.80
2023-02-13T19:38:59.894Z,5.76
2023-02-13T19:41:29.005Z,5.73
2023-02-13T19:43:56.684Z,5.72
2023-02-13T19:46:27.391Z,5.67
2023-02-13T19:48:55.636Z,5.61
2023-02-13T19:51:25.246Z,5.64
2023-02-13T19:53:57.053Z,5.59
2023-02-13T19:56:26.304Z,5.54
2023-02-13T19:58:55.267Z,5.45
2023-02-13T20:01:25.910Z,5.45
2023-02-13T20:03:54.074Z,5.44
2023-02-13T20:06:23.049Z,5.46
2023-02-13T20:08:51.446Z,5.44
2023-02-13T20:11:20.528Z,5.43
2023-02-13T20:13:48.559Z,5.44
2023-02-13T20:16:17.621Z,5.44
2023-02-13T20:18:46.663Z,5.45
2023-02-13T20:21:16.051Z,5.43
2023-02-13T20:23:44.663Z,5.39
2023-02-13T20:26:15.147Z,5.40
2023-02-13T20:28:43.776Z,5.41
2023-02-13T20:31:12.050Z,5.45
2023-02-13T20:33:40.453Z,5.39
2023-02-13T20:36:14.674Z,5.48
2023-02-13T20:38:42.796Z,5.44
2023-02-13T20:41:11.161Z,5.33
2023-02-13T20:43:39.021Z,5.40
2023-02-13T20:46:07.179Z,5.29
2023-02-13T20:48:36.260Z,5.31
2023-02-13T20:51:05.959Z,5.32
2023-02-13T20:53:35.315Z,5.45
2023-02-13T20:56:04.968Z,5.35
2023-02-13T20:58:32.817Z,5.44
2023-02-13T21:01:01.053Z,5.33
2023-02-13T21:03:29.011Z,5.32
2023-02-13T21:05:56.740Z,5.21
2023-02-13T21:08:24.396Z,5.19
2023-02-13T21:10:53.439Z,5.19
2023-02-13T21:13:21.086Z,5.10
2023-02-13T21:15:50.634Z,5.05
2023-02-13T21:18:20.972Z,5.03
2023-02-13T21:20:49.821Z,5.02
2023-02-13T21:23:17.604Z,4.96
2023-02-13T21:25:45.415Z,4.97
2023-02-13T21:28:14.524Z,4.89
2023-02-13T21:30:43.043Z,4.90
2023-02-13T21:33:10.799Z,4.82
2023-02-13T21:35:38.519Z,4.81
2023-02-13T21:38:06.218Z,4.81
2023-02-13T21:40:33.980Z,4.80
2023-02-13T21:43:01.722Z,4.81
2023-02-13T21:45:30.856Z,4.80
2023-02-13T21:47:58.552Z,4.77
2023-02-13T21:50:26.291Z,4.69
2023-02-13T21:52:53.971Z,4.67
2023-02-13T21:55:21.651Z,4.68
2023-02-13T21:57:49.737Z,4.62
2023-02-13T22:00:18.200Z,4.69
2023-02-13T22:02:47.218Z,4.69
2023-02-13T22:05:14.963Z,4.68
2023-02-13T22:07:56.593Z,4.69
2023-02-13T22:10:24.277Z,4.64
2023-02-13T22:12:53.286Z,4.59
2023-02-13T22:15:21.673Z,4.53
2023-02-13T22:17:50.703Z,4.51
2023-02-13T22:20:18.840Z,4.49
2023-02-13T22:22:46.736Z,4.46
2023-02-13T22:25:14.612Z,4.41
2023-02-13T22:27:46.875Z,4.28
2023-02-13T22:30:15.413Z,4.16
2023-02-13T22:32:43.179Z,4.22
2023-02-13T22:35:12.310Z,4.21
2023-02-13T22:37:40.072Z,4.23
2023-02-13T22:40:08.626Z,4.16
2023-02-13T22:42:36.353Z,4.16
2023-02-13T22:45:04.241Z,4.13
2023-02-13T22:47:31.972Z,4.14
2023-02-13T22:49:59.617Z,4.11
2023-02-13T22:52:28.643Z,4.07
2023-02-13T22:54:56.335Z,4.07
2023-02-13T22:57:24.103Z,3.94
2023-02-13T22:59:51.746Z,4.00
2023-02-13T23:02:19.446Z,3.96
2023-02-13T23:04:48.358Z,3.85
2023-02-13T23:07:18.344Z,3.78
2023-02-13T23:09:47.415Z,3.86
2023-02-13T23:12:33.042Z,3.86
2023-02-13T23:15:00.996Z,3.90
2023-02-13T23:17:46.149Z,3.88
2023-02-13T23:20:13.980Z,3.82
2023-02-13T23:22:41.665Z,3.85
2023-02-13T23:25:10.785Z,3.75
2023-02-13T23:27:39.137Z,3.72
2023-02-13T23:30:08.634Z,3.67
2023-02-13T23:32:36.431Z,3.69
2023-02-13T23:35:04.182Z,3.66
2023-02-13T23:37:31.881Z,3.64
2023-02-13T23:39:59.551Z,3.66
2023-02-13T23:42:28.583Z,3.68
2023-02-13T23:44:56.304Z,3.63
2023-02-13T23:47:24.020Z,3.61
2023-02-13T23:49:51.649Z,3.63
2023-02-13T23:52:19.275Z,3.65
2023-02-13T23:54:47.008Z,3.59
2023-02-13T23:57:15.038Z,3.61
2023-02-13T23:59:44.037Z,3.59
